Llanrug, United Kingdom
Current Conditions -  °F | °C
As of 12:50 PM on Tuesday 21 Oct 2014 (Local Time) from EGOV Reporting Station
Scattered Clouds Scattered Clouds  
Wind Chill: 54°   Ceiling: Unl
Heat Index: 54°   Visibility: 6mi
Dew Point: 41°   Wind: 31mph
Humidity: 62%   Direction: 290°WNW
Pressure: 29.77"   Gusts: 47mph
Location:  53.15°N, 4.2°W
Report Text: EGOV 211150Z 29027G41KT 9999 SCT032 12/05 Q1008 BLU NOSIG
Loading
Personal Weather Stations






























Interactive Weather Map
Tropical Storm Tracking
New forecast layout! Learn more

10-Day Weather Forecast

Advertisements
Track Severe Weather on mobile